Time,TemperatureF,DewpointF,PressureIn,WindDirection,WindDirectionDegrees,WindSpeedMPH,WindSpeedGustMPH,Humidity,HourlyPrecipIn,Conditions,Clouds,dailyrainin,SolarRadiationWatts/m^2,SoftwareType,DateUTC
2013-04-15 00:02:00,58.0,42.0,-100.00,SSW,197,5.0,9.0,56,0.00,,,0.00,0.000000,,2013-04-15 07:02:00,
2013-04-15 00:43:00,56.0,42.0,-100.00,South,184,3.0,9.0,59,0.00,,,0.00,0.000000,,2013-04-15 07:43:00,
2013-04-15 00:53:00,56.0,42.0,-100.00,South,184,3.0,9.0,59,0.00,,,0.00,0.000000,,2013-04-15 07:53:00,
2013-04-15 01:02:00,56.0,42.0,-100.00,South,184,3.0,9.0,59,0.00,,,0.00,0.000000,,2013-04-15 08:02:00,
2013-04-15 01:12:00,56.0,42.0,-100.00,South,184,3.0,9.0,59,0.00,,,0.00,0.000000,,2013-04-15 08:12:00,
2013-04-15 01:43:00,53.0,45.0,-100.00,SSE,147,2.0,8.0,75,0.00,,,0.00,0.000000,,2013-04-15 08:43:00,
2013-04-15 01:52:00,53.0,45.0,-100.00,SSE,147,2.0,8.0,75,0.00,,,0.00,0.000000,,2013-04-15 08:52:00,
2013-04-15 02:02:00,53.0,45.0,-100.00,SSE,147,2.0,8.0,75,0.00,,,0.00,0.000000,,2013-04-15 09:02:00,
2013-04-15 02:12:00,53.0,45.0,-100.00,SSE,147,2.0,8.0,75,0.00,,,0.00,0.000000,,2013-04-15 09:12:00,
2013-04-15 02:33:00,52.0,45.0,-100.00,SSE,147,2.0,7.0,78,0.00,,,0.00,0.000000,,2013-04-15 09:33:00,
2013-04-15 02:43:00,52.0,45.0,-100.00,SSE,147,2.0,7.0,78,0.00,,,0.00,0.000000,,2013-04-15 09:43:00,
2013-04-15 02:53:00,52.0,45.0,-100.00,SSE,147,2.0,7.0,78,0.00,,,0.00,0.000000,,2013-04-15 09:53:00,
2013-04-15 03:02:00,52.0,45.0,-100.00,SSE,147,2.0,7.0,78,0.00,,,0.00,0.000000,,2013-04-15 10:02:00,
2013-04-15 03:12:00,52.0,45.0,-100.00,SSE,147,2.0,7.0,78,0.00,,,0.00,0.000000,,2013-04-15 10:12:00,
2013-04-15 03:33:00,50.0,45.0,-100.00,SSE,149,2.0,9.0,83,0.00,,,0.00,0.000000,,2013-04-15 10:33:00,
2013-04-15 03:42:00,50.0,45.0,-100.00,SSE,149,2.0,9.0,83,0.00,,,0.00,0.000000,,2013-04-15 10:42:00,
2013-04-15 03:52:00,50.0,45.0,-100.00,SSE,149,2.0,9.0,83,0.00,,,0.00,0.000000,,2013-04-15 10:52:00,
2013-04-15 04:02:00,50.0,45.0,-100.00,SSE,149,2.0,9.0,83,0.00,,,0.00,0.000000,,2013-04-15 11:02:00,
2013-04-15 04:11:00,50.0,45.0,-100.00,SSE,149,2.0,9.0,83,0.00,,,0.00,0.000000,,2013-04-15 11:11:00,
2013-04-15 04:33:00,49.0,45.0,-100.00,NNW,335,2.0,7.0,87,0.00,,,0.00,0.000000,,2013-04-15 11:33:00,
2013-04-15 04:43:00,49.0,45.0,-100.00,NNW,335,2.0,7.0,87,0.00,,,0.00,0.000000,,2013-04-15 11:43:00,
2013-04-15 04:53:00,49.0,45.0,-100.00,NNW,335,2.0,7.0,87,0.00,,,0.00,0.000000,,2013-04-15 11:53:00,
2013-04-15 05:03:00,49.0,45.0,-100.00,NNW,335,2.0,7.0,87,0.00,,,0.00,0.000000,,2013-04-15 12:03:00,
2013-04-15 05:12:00,49.0,45.0,-100.00,NNW,335,2.0,7.0,87,0.00,,,0.00,0.000000,,2013-04-15 12:12:00,
2013-04-15 05:34:00,47.0,44.0,-100.00,NE,38,2.0,5.0,90,0.00,,,0.00,0.000000,,2013-04-15 12:34:00,
2013-04-15 05:43:00,47.0,44.0,-100.00,NE,38,2.0,5.0,90,0.00,,,0.00,0.000000,,2013-04-15 12:43:00,
2013-04-15 05:53:00,47.0,44.0,-100.00,NE,38,2.0,5.0,90,0.00,,,0.00,0.000000,,2013-04-15 12:53:00,
2013-04-15 06:03:00,47.0,44.0,-100.00,NE,38,2.0,5.0,90,0.00,,,0.00,0.000000,,2013-04-15 13:03:00,
2013-04-15 06:12:00,47.0,44.0,-100.00,NE,38,2.0,5.0,90,0.00,,,0.00,0.000000,,2013-04-15 13:12:00,
2013-04-15 06:43:00,46.0,44.0,-100.00,ESE,107,3.0,4.0,93,0.00,,,0.00,0.000000,,2013-04-15 13:43:00,
2013-04-15 06:53:00,46.0,44.0,-100.00,ESE,107,3.0,4.0,93,0.00,,,0.00,0.000000,,2013-04-15 13:53:00,
2013-04-15 07:03:00,46.0,44.0,-100.00,ESE,107,3.0,4.0,93,0.00,,,0.00,0.000000,,2013-04-15 14:03:00,
2013-04-15 07:12:00,46.0,44.0,-100.00,ESE,107,3.0,4.0,93,0.00,,,0.00,0.000000,,2013-04-15 14:12:00,
2013-04-15 07:34:00,47.0,45.0,-100.00,ESE,103,2.0,3.0,94,0.00,,,0.00,20.000000,,2013-04-15 14:34:00,
2013-04-15 07:44:00,47.0,45.0,-100.00,ESE,103,2.0,3.0,94,0.00,,,0.00,20.000000,,2013-04-15 14:44:00,
2013-04-15 07:54:00,47.0,45.0,-100.00,ESE,103,2.0,3.0,94,0.00,,,0.00,20.000000,,2013-04-15 14:54:00,
2013-04-15 08:03:00,47.0,45.0,-100.00,ESE,103,2.0,3.0,94,0.00,,,0.00,20.000000,,2013-04-15 15:03:00,
2013-04-15 08:11:00,47.0,45.0,-100.00,ESE,103,2.0,3.0,94,0.00,,,0.00,20.000000,,2013-04-15 15:11:00,
2013-04-15 08:37:00,55.0,48.0,-100.00,NE,45,2.0,4.0,78,0.00,,,0.00,162.000000,,2013-04-15 15:37:00,
2013-04-15 08:44:00,55.0,48.0,-100.00,NE,45,2.0,4.0,78,0.00,,,0.00,162.000000,,2013-04-15 15:44:00,
2013-04-15 08:54:00,55.0,48.0,-100.00,NE,45,2.0,4.0,78,0.00,,,0.00,162.000000,,2013-04-15 15:54:00,
2013-04-15 09:03:00,55.0,48.0,-100.00,NE,45,2.0,4.0,78,0.00,,,0.00,162.000000,,2013-04-15 16:03:00,
2013-04-15 09:12:00,55.0,48.0,-100.00,NE,45,2.0,4.0,78,0.00,,,0.00,162.000000,,2013-04-15 16:12:00,
2013-04-15 09:13:00,55.0,47.0,-100.00,NW,321,2.0,5.0,75,0.00,,,0.00,293.000000,,2013-04-15 16:13:00,
2013-04-15 09:44:00,55.0,47.0,-100.00,NW,321,2.0,5.0,75,0.00,,,0.00,293.000000,,2013-04-15 16:44:00,
2013-04-15 09:53:00,55.0,47.0,-100.00,NW,321,2.0,5.0,75,0.00,,,0.00,293.000000,,2013-04-15 16:53:00,
2013-04-15 10:03:00,55.0,47.0,-100.00,NW,321,2.0,5.0,75,0.00,,,0.00,293.000000,,2013-04-15 17:03:00,
2013-04-15 10:33:00,56.0,36.0,-100.00,North,5,4.0,10.0,46,0.00,,,0.00,182.000000,,2013-04-15 17:33:00,
2013-04-15 10:43:00,56.0,36.0,-100.00,North,5,4.0,10.0,46,0.00,,,0.00,182.000000,,2013-04-15 17:43:00,
2013-04-15 10:52:00,56.0,36.0,-100.00,North,5,4.0,10.0,46,0.00,,,0.00,182.000000,,2013-04-15 17:52:00,
2013-04-15 11:02:00,56.0,36.0,-100.00,North,5,4.0,10.0,46,0.00,,,0.00,182.000000,,2013-04-15 18:02:00,
2013-04-15 11:12:00,56.0,36.0,-100.00,North,5,4.0,10.0,46,0.00,,,0.00,182.000000,,2013-04-15 18:12:00,
2013-04-15 11:33:00,58.0,35.0,-100.00,North,7,6.0,13.0,42,0.00,,,0.00,526.000000,,2013-04-15 18:33:00,
2013-04-15 11:42:00,58.0,35.0,-100.00,North,7,6.0,13.0,42,0.00,,,0.00,526.000000,,2013-04-15 18:42:00,
2013-04-15 11:52:00,58.0,35.0,-100.00,North,7,6.0,13.0,42,0.00,,,0.00,526.000000,,2013-04-15 18:52:00,
2013-04-15 12:02:00,58.0,35.0,-100.00,North,7,6.0,13.0,42,0.00,,,0.00,526.000000,,2013-04-15 19:02:00,
2013-04-15 12:11:00,58.0,35.0,-100.00,North,7,6.0,13.0,42,0.00,,,0.00,526.000000,,2013-04-15 19:11:00,
2013-04-15 12:58:00,61.0,36.0,-100.00,North,359,5.0,13.0,39,0.00,,,0.00,625.000000,,2013-04-15 19:58:00,
2013-04-15 13:00:00,61.0,36.0,-100.00,North,359,5.0,13.0,39,0.00,,,0.00,625.000000,,2013-04-15 20:00:00,
2013-04-15 13:11:00,61.0,36.0,-100.00,North,359,5.0,13.0,39,0.00,,,0.00,625.000000,,2013-04-15 20:11:00,
2013-04-15 13:32:00,61.0,35.0,-100.00,West,266,4.0,11.0,38,0.00,,,0.00,664.000000,,2013-04-15 20:32:00,
2013-04-15 13:42:00,61.0,35.0,-100.00,West,266,4.0,11.0,38,0.00,,,0.00,664.000000,,2013-04-15 20:42:00,
2013-04-15 13:52:00,61.0,35.0,-100.00,West,266,4.0,11.0,38,0.00,,,0.00,664.000000,,2013-04-15 20:52:00,
2013-04-15 14:02:00,61.0,35.0,-100.00,West,266,4.0,11.0,38,0.00,,,0.00,664.000000,,2013-04-15 21:02:00,
2013-04-15 14:11:00,61.0,35.0,-100.00,West,266,4.0,11.0,38,0.00,,,0.00,664.000000,,2013-04-15 21:11:00,
2013-04-15 14:13:00,62.0,36.0,-100.00,NNW,336,6.0,11.0,38,0.00,,,0.00,800.000000,,2013-04-15 21:13:00,
2013-04-15 14:43:00,62.0,36.0,-100.00,NNW,336,6.0,11.0,38,0.00,,,0.00,800.000000,,2013-04-15 21:43:00,
2013-04-15 14:53:00,62.0,36.0,-100.00,NNW,336,6.0,11.0,38,0.00,,,0.00,800.000000,,2013-04-15 21:53:00,
2013-04-15 15:02:00,62.0,36.0,-100.00,NNW,336,6.0,11.0,38,0.00,,,0.00,800.000000,,2013-04-15 22:02:00,
2013-04-15 15:42:00,53.0,42.0,-100.00,North,4,8.0,15.0,66,0.04,,,0.04,126.000000,,2013-04-15 22:42:00,
2013-04-15 15:52:00,53.0,42.0,-100.00,North,4,8.0,15.0,66,0.04,,,0.04,126.000000,,2013-04-15 22:52:00,
2013-04-15 16:32:00,50.0,44.0,-100.00,NW,326,3.0,15.0,79,0.09,,,0.13,58.000000,,2013-04-15 23:32:00,
2013-04-15 16:42:00,50.0,44.0,-100.00,NW,326,3.0,15.0,79,0.09,,,0.13,58.000000,,2013-04-15 23:42:00,
2013-04-15 16:52:00,50.0,44.0,-100.00,NW,326,3.0,15.0,79,0.09,,,0.13,58.000000,,2013-04-15 23:52:00,
2013-04-15 17:02:00,50.0,44.0,-100.00,NW,326,3.0,15.0,79,0.09,,,0.13,58.000000,,2013-04-16 00:02:00,
2013-04-15 17:11:00,50.0,44.0,-100.00,NW,326,3.0,15.0,79,0.09,,,0.13,58.000000,,2013-04-16 00:11:00,
2013-04-15 18:32:00,56.0,46.0,-100.00,East,90,5.0,14.0,70,-99.99,,,0.16,268.000000,,2013-04-16 01:32:00,
2013-04-15 18:42:00,56.0,46.0,-100.00,East,90,5.0,14.0,70,-99.99,,,0.16,268.000000,,2013-04-16 01:42:00,
2013-04-15 18:52:00,56.0,46.0,-100.00,East,90,5.0,14.0,70,-99.99,,,0.16,268.000000,,2013-04-16 01:52:00,
2013-04-15 19:02:00,56.0,46.0,-100.00,East,90,5.0,14.0,70,-99.99,,,0.16,268.000000,,2013-04-16 02:02:00,
2013-04-15 19:12:00,56.0,46.0,-100.00,East,90,5.0,14.0,70,-99.99,,,0.16,268.000000,,2013-04-16 02:12:00,
2013-04-15 19:32:00,52.0,45.0,-100.00,ESE,115,3.0,7.0,78,0.00,,,0.16,111.000000,,2013-04-16 02:32:00,
2013-04-15 19:42:00,52.0,45.0,-100.00,ESE,115,3.0,7.0,78,0.00,,,0.16,111.000000,,2013-04-16 02:42:00,
2013-04-15 19:52:00,52.0,45.0,-100.00,ESE,115,3.0,7.0,78,0.00,,,0.16,111.000000,,2013-04-16 02:52:00,
2013-04-15 20:02:00,52.0,45.0,-100.00,ESE,115,3.0,7.0,78,0.00,,,0.16,111.000000,,2013-04-16 03:02:00,
2013-04-15 20:12:00,52.0,45.0,-100.00,ESE,115,3.0,7.0,78,0.00,,,0.16,111.000000,,2013-04-16 03:12:00,
2013-04-15 20:33:00,49.0,42.0,-100.00,WSW,254,2.0,6.0,76,0.00,,,0.16,7.000000,,2013-04-16 03:33:00,
2013-04-15 20:43:00,49.0,42.0,-100.00,WSW,254,2.0,6.0,76,0.00,,,0.16,7.000000,,2013-04-16 03:43:00,
2013-04-15 20:52:00,49.0,42.0,-100.00,WSW,254,2.0,6.0,76,0.00,,,0.16,7.000000,,2013-04-16 03:52:00,
2013-04-15 21:02:00,49.0,42.0,-100.00,WSW,254,2.0,6.0,76,0.00,,,0.16,7.000000,,2013-04-16 04:02:00,
2013-04-15 21:12:00,49.0,42.0,-100.00,WSW,254,2.0,6.0,76,0.00,,,0.16,7.000000,,2013-04-16 04:12:00,
2013-04-15 21:33:00,46.0,43.0,-100.00,East,91,1.0,7.0,89,0.00,,,0.16,0.000000,,2013-04-16 04:33:00,
2013-04-15 21:42:00,46.0,43.0,-100.00,East,91,1.0,7.0,89,0.00,,,0.16,0.000000,,2013-04-16 04:42:00,
2013-04-15 21:53:00,46.0,43.0,-100.00,East,91,1.0,7.0,89,0.00,,,0.16,0.000000,,2013-04-16 04:53:00,
2013-04-15 22:02:00,46.0,43.0,-100.00,East,91,1.0,7.0,89,0.00,,,0.16,0.000000,,2013-04-16 05:02:00,
2013-04-15 22:11:00,46.0,43.0,-100.00,East,91,1.0,7.0,89,0.00,,,0.16,0.000000,,2013-04-16 05:11:00,
2013-04-15 22:32:00,43.0,42.0,-100.00,ENE,77,2.0,6.0,95,0.00,,,0.16,0.000000,,2013-04-16 05:32:00,
2013-04-15 22:42:00,43.0,42.0,-100.00,ENE,77,2.0,6.0,95,0.00,,,0.16,0.000000,,2013-04-16 05:42:00,
2013-04-15 22:52:00,43.0,42.0,-100.00,ENE,77,2.0,6.0,95,0.00,,,0.16,0.000000,,2013-04-16 05:52:00,
2013-04-15 23:02:00,43.0,42.0,-100.00,ENE,77,2.0,6.0,95,0.00,,,0.16,0.000000,,2013-04-16 06:02:00,
2013-04-15 23:12:00,43.0,42.0,-100.00,ENE,77,2.0,6.0,95,0.00,,,0.16,0.000000,,2013-04-16 06:12:00,
2013-04-15 23:32:00,40.0,39.0,-100.00,ESE,114,2.0,4.0,97,0.00,,,0.16,0.000000,,2013-04-16 06:32:00,